createdAt,value
2023-09-27T00:02:12.120Z,27.35
2023-09-27T00:05:18.210Z,24.38
2023-09-27T00:08:22.595Z,27.02
2023-09-27T00:11:26.611Z,27.65
2023-09-27T00:14:30.554Z,25.23
2023-09-27T00:17:35.942Z,23.70
2023-09-27T00:20:39.766Z,29.42
2023-09-27T00:23:43.818Z,24.90
2023-09-27T00:26:47.621Z,27.83
2023-09-27T00:29:52.620Z,26.25
2023-09-27T00:32:57.870Z,37.72
2023-09-27T00:36:03.414Z,37.92
2023-09-27T00:39:07.322Z,38.58
2023-09-27T00:42:11.440Z,38.45
2023-09-27T00:45:15.196Z,45.67
2023-09-27T00:48:20.382Z,29.55
2023-09-27T00:51:25.512Z,31.38
2023-09-27T00:54:29.562Z,29.42
2023-09-27T00:57:33.328Z,40.97
2023-09-27T01:00:38.720Z,31.27
2023-09-27T01:03:43.965Z,33.83
2023-09-27T01:06:50.324Z,36.80
2023-09-27T01:09:54.244Z,29.02
2023-09-27T01:12:58.492Z,29.25
2023-09-27T01:16:05.770Z,27.77
2023-09-27T01:19:11.140Z,26.20
2023-09-27T01:22:15.706Z,24.40
2023-09-27T01:25:23.714Z,27.90
2023-09-27T01:28:27.600Z,25.25
2023-09-27T01:31:31.421Z,26.17
2023-09-27T01:34:35.171Z,25.85
2023-09-27T01:37:39.503Z,28.25
2023-09-27T01:40:45.691Z,28.88
2023-09-27T01:43:49.587Z,26.27
2023-09-27T01:46:53.624Z,33.30
2023-09-27T01:49:58.040Z,22.33
2023-09-27T01:53:04.376Z,20.20
2023-09-27T01:56:09.823Z,33.70
2023-09-27T01:59:13.657Z,26.40
2023-09-27T02:02:17.525Z,43.72
2023-09-27T02:05:21.453Z,34.95
2023-09-27T02:08:25.290Z,31.98
2023-09-27T02:11:30.542Z,61.15
2023-09-27T02:14:34.446Z,20.02
2023-09-27T02:17:38.697Z,18.55
2023-09-27T02:20:42.617Z,17.90
2023-09-27T02:23:46.785Z,16.77
2023-09-27T02:26:51.951Z,17.75
2023-09-27T02:29:55.738Z,16.63
2023-09-27T02:32:59.497Z,24.15
2023-09-27T02:36:03.306Z,14.93
2023-09-27T02:39:07.223Z,14.82
2023-09-27T02:42:13.544Z,15.27
2023-09-27T02:45:17.505Z,13.10
2023-09-27T02:48:21.561Z,13.93
2023-09-27T02:51:25.390Z,10.43
2023-09-27T02:54:29.779Z,14.95
2023-09-27T02:57:34.959Z,13.43
2023-09-27T03:00:38.763Z,17.38
2023-09-27T03:03:42.630Z,20.92
2023-09-27T03:06:50.323Z,17.17
2023-09-27T03:09:54.306Z,17.65
2023-09-27T03:13:00.359Z,17.83
2023-09-27T03:16:05.410Z,22.33
2023-09-27T03:19:10.101Z,22.88
2023-09-27T03:22:14.456Z,21.08
2023-09-27T03:25:19.217Z,19.08
2023-09-27T03:28:24.458Z,16.10
2023-09-27T03:31:28.662Z,17.20
2023-09-27T03:34:33.453Z,20.73
2023-09-27T03:37:37.185Z,18.90
2023-09-27T03:40:42.110Z,18.58
2023-09-27T03:43:47.722Z,17.13
2023-09-27T03:46:52.110Z,17.85
2023-09-27T03:49:56.222Z,16.80
2023-09-27T03:53:03.804Z,17.25
2023-09-27T03:56:07.796Z,18.90
2023-09-27T03:59:14.997Z,17.88
2023-09-27T04:02:19.135Z,20.58
2023-09-27T04:05:26.770Z,17.48
2023-09-27T04:08:30.696Z,17.40
2023-09-27T04:11:34.576Z,16.38
2023-09-27T04:14:40.274Z,15.80
2023-09-27T04:17:44.257Z,15.70
2023-09-27T04:20:48.271Z,16.58
2023-09-27T04:23:55.845Z,16.55
2023-09-27T04:26:59.559Z,16.02
2023-09-27T04:30:08.173Z,19.58
2023-09-27T04:33:12.032Z,18.13
2023-09-27T04:36:18.538Z,16.25
2023-09-27T04:39:22.467Z,17.00
2023-09-27T04:42:26.464Z,18.85
2023-09-27T04:45:31.781Z,19.60
2023-09-27T04:48:35.520Z,23.25
2023-09-27T04:51:39.654Z,21.65
2023-09-27T04:54:43.803Z,22.27
2023-09-27T04:57:47.843Z,21.83
2023-09-27T05:00:53.032Z,24.08
2023-09-27T05:03:56.956Z,22.75
2023-09-27T05:07:00.773Z,17.35
2023-09-27T05:10:05.322Z,19.55
2023-09-27T05:13:09.045Z,19.52
2023-09-27T05:16:15.325Z,17.33
2023-09-27T05:19:19.286Z,16.45
2023-09-27T05:22:23.107Z,18.25
2023-09-27T05:25:26.869Z,17.33
2023-09-27T05:28:31.062Z,20.58
2023-09-27T05:31:36.329Z,16.52
2023-09-27T05:34:40.063Z,18.17
2023-09-27T05:37:44.429Z,20.55
2023-09-27T05:40:48.198Z,15.77
2023-09-27T05:43:51.946Z,16.05
2023-09-27T05:46:57.628Z,15.68
2023-09-27T05:50:01.694Z,15.98
2023-09-27T05:53:06.663Z,15.68
2023-09-27T05:56:10.441Z,15.68
2023-09-27T05:59:15.891Z,18.83
2023-09-27T06:02:21.764Z,18.23
2023-09-27T06:05:25.548Z,15.73
2023-09-27T06:08:29.949Z,16.17
2023-09-27T06:11:33.977Z,16.17
2023-09-27T06:14:37.904Z,17.85
2023-09-27T06:17:44.653Z,15.90
2023-09-27T06:20:48.668Z,13.43
2023-09-27T06:23:52.540Z,17.60
2023-09-27T06:26:56.356Z,15.07
2023-09-27T06:30:00.110Z,14.85
2023-09-27T06:33:05.773Z,13.43
2023-09-27T06:36:10.126Z,19.20
2023-09-27T06:39:14.822Z,14.43
2023-09-27T06:42:20.516Z,16.80
2023-09-27T06:45:24.726Z,15.05
2023-09-27T06:48:30.545Z,14.77
2023-09-27T06:51:34.468Z,14.07
2023-09-27T06:54:39.281Z,16.75
2023-09-27T06:57:43.215Z,20.42
2023-09-27T07:00:46.957Z,21.98
2023-09-27T07:03:52.310Z,18.10
2023-09-27T07:06:56.352Z,18.33
2023-09-27T07:10:00.083Z,17.70
2023-09-27T07:13:03.955Z,17.42
2023-09-27T07:16:21.697Z,13.73
2023-09-27T07:19:27.709Z,24.75
2023-09-27T07:22:32.465Z,17.05
2023-09-27T07:25:39.170Z,19.45
2023-09-27T07:28:43.460Z,17.85
2023-09-27T07:31:47.631Z,17.13
2023-09-27T07:34:54.271Z,18.10
2023-09-27T07:37:59.437Z,17.50
2023-09-27T07:41:03.297Z,23.48
2023-09-27T07:44:08.679Z,16.25
2023-09-27T07:47:12.611Z,22.95
2023-09-27T07:50:18.004Z,20.55
2023-09-27T07:53:21.988Z,17.98
2023-09-27T07:56:27.739Z,16.52
2023-09-27T07:59:32.423Z,17.10
2023-09-27T08:02:36.362Z,12.43
2023-09-27T08:05:45.201Z,11.00
2023-09-27T08:08:49.326Z,13.88
2023-09-27T08:11:53.236Z,14.35
2023-09-27T08:14:57.474Z,10.88
2023-09-27T08:18:01.383Z,14.57
2023-09-27T08:21:06.914Z,19.45
2023-09-27T08:24:10.659Z,9.88
2023-09-27T08:27:14.470Z,12.27
2023-09-27T08:30:18.556Z,9.77
2023-09-27T08:33:22.395Z,9.30
2023-09-27T08:36:27.518Z,11.88
2023-09-27T08:39:32.111Z,10.20
2023-09-27T08:42:36.268Z,10.00
2023-09-27T08:45:40.462Z,9.13
2023-09-27T08:48:44.288Z,9.95
2023-09-27T08:51:49.453Z,13.02
2023-09-27T08:54:54.189Z,15.32
2023-09-27T08:57:58.899Z,11.20
2023-09-27T09:01:02.797Z,13.55
2023-09-27T09:04:08.157Z,10.30
2023-09-27T09:07:13.482Z,12.13
2023-09-27T09:10:18.143Z,13.13
2023-09-27T09:13:24.306Z,15.35
2023-09-27T09:16:28.246Z,10.38
2023-09-27T09:19:41.566Z,13.30
2023-09-27T09:22:51.630Z,11.55
2023-09-27T09:25:57.923Z,10.27
2023-09-27T09:29:02.028Z,10.73
2023-09-27T09:32:09.965Z,9.77
2023-09-27T09:35:13.785Z,14.00
2023-09-27T09:38:27.697Z,9.95
2023-09-27T09:41:45.971Z,8.75
2023-09-27T09:45:01.216Z,11.43
2023-09-27T09:48:07.855Z,13.77
2023-09-27T09:51:12.780Z,11.98
2023-09-27T09:54:30.080Z,9.35
2023-09-27T09:57:51.773Z,10.00
2023-09-27T10:00:59.559Z,10.18
2023-09-27T10:04:05.715Z,8.57
2023-09-27T10:07:10.097Z,15.52
2023-09-27T10:10:15.627Z,8.15
2023-09-27T10:13:20.228Z,10.23
2023-09-27T10:16:25.612Z,8.25
2023-09-27T10:19:30.637Z,13.65
2023-09-27T10:22:34.771Z,8.63
2023-09-27T10:25:40.105Z,12.88
2023-09-27T10:29:11.627Z,9.05
2023-09-27T10:32:18.833Z,10.60
2023-09-27T10:35:23.532Z,9.13
2023-09-27T10:38:27.317Z,8.25
2023-09-27T10:41:49.746Z,8.35
2023-09-27T10:44:55.002Z,15.05
2023-09-27T10:48:16.915Z,12.82
2023-09-27T10:51:20.744Z,8.20
2023-09-27T10:54:25.091Z,11.55
2023-09-27T10:57:30.919Z,10.68
2023-09-27T11:00:34.780Z,8.43
2023-09-27T11:03:38.553Z,9.00
2023-09-27T11:06:46.907Z,11.27
2023-09-27T11:09:52.974Z,7.32
2023-09-27T11:13:13.119Z,8.75
2023-09-27T11:16:19.607Z,8.25
2023-09-27T11:19:30.824Z,9.05
2023-09-27T11:22:34.573Z,7.35
2023-09-27T11:25:39.269Z,12.15
2023-09-27T11:28:44.535Z,6.18
2023-09-27T11:31:56.582Z,5.90
2023-09-27T11:35:01.290Z,10.15
2023-09-27T11:38:12.354Z,9.23
2023-09-27T11:41:17.982Z,6.18
2023-09-27T11:44:24.817Z,13.50
2023-09-27T11:47:28.700Z,6.90
2023-09-27T11:50:32.625Z,8.70
2023-09-27T11:53:37.568Z,12.43
2023-09-27T11:56:42.136Z,10.23
2023-09-27T11:59:48.112Z,7.85
2023-09-27T12:02:57.618Z,6.35
2023-09-27T12:06:02.358Z,8.10
2023-09-27T12:09:07.234Z,7.47
2023-09-27T12:12:11.474Z,14.93
2023-09-27T12:15:17.128Z,8.35
2023-09-27T12:18:22.018Z,6.88
2023-09-27T12:21:25.884Z,7.43
2023-09-27T12:24:29.610Z,9.32
2023-09-27T12:27:33.414Z,6.82
2023-09-27T12:30:38.797Z,8.05
2023-09-27T12:33:42.617Z,7.07
2023-09-27T12:36:46.415Z,6.20
2023-09-27T12:39:50.136Z,6.95
2023-09-27T12:42:53.910Z,6.45
2023-09-27T12:45:59.161Z,11.20
2023-09-27T12:49:04.579Z,12.10
2023-09-27T12:52:08.357Z,11.80
2023-09-27T12:55:12.548Z,8.63
2023-09-27T12:58:16.352Z,14.05
2023-09-27T13:01:21.929Z,9.32
2023-09-27T13:04:25.847Z,8.70
2023-09-27T13:07:30.634Z,8.02
2023-09-27T13:10:36.171Z,7.45
2023-09-27T13:13:40.208Z,12.45
2023-09-27T13:16:45.410Z,8.48
2023-09-27T13:19:49.175Z,19.90
2023-09-27T13:22:52.932Z,10.77
2023-09-27T13:25:57.912Z,7.82
2023-09-27T13:29:01.854Z,8.15
2023-09-27T13:32:07.030Z,9.25
2023-09-27T13:35:10.987Z,9.18
2023-09-27T13:38:14.856Z,8.85
2023-09-27T13:41:18.630Z,12.80
2023-09-27T13:44:23.075Z,8.00
2023-09-27T13:47:28.353Z,7.57
2023-09-27T13:50:35.170Z,6.97
2023-09-27T13:53:39.053Z,6.28
2023-09-27T13:56:42.922Z,6.90
2023-09-27T13:59:47.226Z,7.20
2023-09-27T14:02:52.397Z,6.60
2023-09-27T14:05:56.237Z,6.53
2023-09-27T14:09:00.118Z,5.95
2023-09-27T14:12:04.721Z,12.82
2023-09-27T14:15:11.363Z,6.30
2023-09-27T14:18:17.585Z,7.00
2023-09-27T14:21:21.533Z,6.60
2023-09-27T14:24:25.348Z,6.65
2023-09-27T14:27:29.580Z,6.53
2023-09-27T14:30:33.309Z,7.10
2023-09-27T14:33:38.702Z,6.80
2023-09-27T14:36:42.445Z,7.28
2023-09-27T14:39:46.214Z,8.82
2023-09-27T14:42:50.069Z,7.20
2023-09-27T14:45:54.186Z,8.40
2023-09-27T14:48:59.320Z,7.22
2023-09-27T14:52:03.061Z,7.03
2023-09-27T14:55:08.572Z,6.47
2023-09-27T14:58:13.556Z,6.43
2023-09-27T15:01:18.986Z,9.13
2023-09-27T15:04:24.659Z,7.95
2023-09-27T15:07:28.711Z,8.05
2023-09-27T15:10:33.102Z,6.93
2023-09-27T15:13:36.875Z,7.10
2023-09-27T15:16:40.853Z,6.60
2023-09-27T15:19:46.395Z,6.97
2023-09-27T15:22:51.543Z,6.45
2023-09-27T15:25:55.911Z,7.95
2023-09-27T15:29:01.355Z,6.95
2023-09-27T15:32:05.550Z,9.73
2023-09-27T15:35:11.225Z,7.03
2023-09-27T15:38:14.939Z,7.88
2023-09-27T15:41:18.819Z,7.13
2023-09-27T15:44:22.588Z,6.47
2023-09-27T15:47:26.369Z,7.18
2023-09-27T15:50:31.587Z,6.57
2023-09-27T15:53:35.796Z,7.05
2023-09-27T15:56:39.622Z,7.30
2023-09-27T15:59:43.356Z,8.23
2023-09-27T16:02:48.126Z,7.53
2023-09-27T16:05:53.724Z,10.07
2023-09-27T16:08:57.580Z,12.55
2023-09-27T16:12:03.199Z,11.60
2023-09-27T16:15:08.687Z,7.85
2023-09-27T16:18:12.447Z,8.82
2023-09-27T16:21:19.636Z,9.82
2023-09-27T16:24:23.714Z,9.88
2023-09-27T16:27:28.059Z,7.72
2023-09-27T16:30:32.374Z,10.30
2023-09-27T16:33:37.415Z,7.70
2023-09-27T16:36:45.449Z,10.65
2023-09-27T16:39:50.728Z,10.93
2023-09-27T16:42:54.514Z,7.68
2023-09-27T16:45:58.368Z,7.30
2023-09-27T16:49:02.142Z,8.82
2023-09-27T16:52:07.336Z,6.95
2023-09-27T16:55:12.253Z,12.80
2023-09-27T16:58:16.221Z,7.78
2023-09-27T17:01:20.048Z,7.70
2023-09-27T17:04:23.897Z,12.68
2023-09-27T17:07:34.007Z,22.38
2023-09-27T17:10:37.915Z,15.18
2023-09-27T17:13:41.755Z,9.23
2023-09-27T17:16:45.621Z,11.02
2023-09-27T17:19:49.985Z,7.63
2023-09-27T17:22:55.541Z,13.88
2023-09-27T17:25:59.406Z,9.25
2023-09-27T17:29:03.254Z,15.13
2023-09-27T17:32:07.039Z,7.90
2023-09-27T17:35:11.909Z,7.18
2023-09-27T17:38:17.764Z,8.98
2023-09-27T17:41:21.520Z,10.27
2023-09-27T17:44:25.480Z,8.23
2023-09-27T17:47:29.283Z,7.82
2023-09-27T17:50:34.073Z,8.90
2023-09-27T17:53:39.189Z,12.90
2023-09-27T17:56:42.930Z,7.88
2023-09-27T17:59:46.812Z,7.45
2023-09-27T18:02:51.137Z,9.52
2023-09-27T18:05:55.026Z,8.55
2023-09-27T18:09:00.307Z,7.63
2023-09-27T18:12:04.446Z,15.05
2023-09-27T18:15:21.457Z,8.57
2023-09-27T18:18:31.321Z,9.70
2023-09-27T18:21:35.000Z,10.48
2023-09-27T18:24:40.387Z,12.23
2023-09-27T18:27:44.119Z,11.07
2023-09-27T18:30:47.859Z,10.35
2023-09-27T18:33:52.018Z,8.63
2023-09-27T18:36:55.888Z,8.10
2023-09-27T18:40:01.060Z,9.77
2023-09-27T18:43:05.285Z,10.23
2023-09-27T18:46:09.061Z,8.95
2023-09-27T18:49:12.907Z,8.68
2023-09-27T18:52:16.770Z,10.73
2023-09-27T18:55:22.041Z,18.35
2023-09-27T18:58:26.074Z,11.15
2023-09-27T19:01:30.194Z,10.63
2023-09-27T19:04:34.316Z,7.55
2023-09-27T19:07:38.352Z,8.90
2023-09-27T19:10:44.676Z,8.15
2023-09-27T19:13:48.763Z,8.25
2023-09-27T19:16:52.733Z,8.18
2023-09-27T19:19:56.660Z,8.02
2023-09-27T19:23:00.978Z,12.38
2023-09-27T19:26:07.095Z,9.02
2023-09-27T19:29:11.017Z,9.05
2023-09-27T19:32:14.961Z,8.93
2023-09-27T19:35:18.952Z,9.60
2023-09-27T19:38:22.903Z,8.88
2023-09-27T19:41:31.880Z,8.90
2023-09-27T19:44:36.624Z,16.25
2023-09-27T19:47:40.679Z,9.63
2023-09-27T19:50:44.643Z,14.75
2023-09-27T19:53:48.753Z,14.88
2023-09-27T19:56:55.212Z,16.25
2023-09-27T19:59:59.061Z,11.05
2023-09-27T20:03:03.243Z,10.85
2023-09-27T20:06:07.523Z,10.48
2023-09-27T20:09:11.752Z,8.90
2023-09-27T20:12:17.105Z,9.52
2023-09-27T20:15:21.229Z,12.00
2023-09-27T20:18:26.628Z,10.20
2023-09-27T20:21:30.517Z,17.77
2023-09-27T20:24:34.702Z,14.75
2023-09-27T20:27:40.357Z,12.95
2023-09-27T20:30:44.331Z,12.32
2023-09-27T20:33:48.326Z,12.90
2023-09-27T20:36:52.638Z,10.98
2023-09-27T20:39:56.622Z,9.98
2023-09-27T20:43:02.250Z,10.93
2023-09-27T20:46:06.501Z,9.00
2023-09-27T20:49:10.466Z,8.85
2023-09-27T20:52:14.411Z,10.02
2023-09-27T20:55:18.302Z,9.30
2023-09-27T20:58:23.643Z,9.52
2023-09-27T21:01:28.706Z,9.90
2023-09-27T21:04:32.666Z,9.38
2023-09-27T21:07:38.732Z,11.68
2023-09-27T21:10:42.720Z,11.80
2023-09-27T21:13:48.118Z,9.32
2023-09-27T21:16:52.115Z,11.00
2023-09-27T21:19:56.270Z,9.35
2023-09-27T21:23:00.938Z,9.65
2023-09-27T21:26:09.502Z,9.40
2023-09-27T21:29:15.016Z,9.13
2023-09-27T21:32:18.972Z,11.30
2023-09-27T21:35:23.007Z,11.35
2023-09-27T21:38:26.857Z,13.93
2023-09-27T21:41:30.830Z,8.73
2023-09-27T21:44:36.188Z,9.50
2023-09-27T21:47:40.077Z,10.45
2023-09-27T21:50:44.366Z,9.30
2023-09-27T21:53:49.487Z,9.90
2023-09-27T21:56:53.614Z,8.60
2023-09-27T21:59:58.890Z,9.27
2023-09-27T22:03:03.902Z,8.98
2023-09-27T22:06:08.689Z,8.75
2023-09-27T22:09:13.401Z,9.88
2023-09-27T22:12:17.631Z,13.23
2023-09-27T22:15:24.683Z,12.68
2023-09-27T22:18:34.603Z,13.70
2023-09-27T22:21:44.015Z,12.98
2023-09-27T22:24:48.708Z,11.38
2023-09-27T22:27:52.826Z,9.32
2023-09-27T22:31:01.830Z,9.77
2023-09-27T22:34:12.483Z,8.48
2023-09-27T22:37:16.448Z,9.27
2023-09-27T22:40:23.786Z,8.50
2023-09-27T22:43:27.858Z,10.48
2023-09-27T22:46:33.224Z,12.35
2023-09-27T22:49:38.240Z,10.90
2023-09-27T22:52:43.799Z,9.90
2023-09-27T22:55:51.768Z,10.98
2023-09-27T22:58:55.882Z,9.85
2023-09-27T23:02:10.374Z,9.27
2023-09-27T23:05:33.522Z,10.43
2023-09-27T23:08:39.202Z,12.82
2023-09-27T23:11:43.111Z,13.48
2023-09-27T23:15:10.174Z,10.23
2023-09-27T23:18:14.985Z,9.35
2023-09-27T23:21:24.708Z,11.18
2023-09-27T23:24:43.951Z,10.10
2023-09-27T23:27:47.482Z,11.68
2023-09-27T23:30:52.289Z,11.52
2023-09-27T23:33:57.698Z,11.43
2023-09-27T23:37:10.503Z,12.65
2023-09-27T23:40:15.819Z,13.57
2023-09-27T23:43:23.994Z,10.63
2023-09-27T23:46:27.939Z,10.45
2023-09-27T23:49:33.293Z,13.00
2023-09-27T23:52:42.247Z,11.20
2023-09-27T23:55:46.770Z,11.70
2023-09-27T23:58:53.128Z,11.10
